Terminal Aerodrome Forecast
Issued by NWS

Home | Current Version | Previous Version | Text Only | Print | Product List | Glossary On
Versions: 1 2 3 4 5 6 7 8 9 10 11 12 13 14 15 16 17 18 19 20 21 22 23 24 25 26 27 28 29 30 31 32 33 34 35 36 37 38 39 40 41 42 43 44 45 46 47 48 49 50
000
FTUS45 KBOU 181147
TAFBJC
TAF
KBJC 181147Z 1812/1912 00000KT P6SM SCT012 BKN050
      TEMPO 1813/1815 BKN012
     FM181700 33007KT P6SM VCSH SCT025 BKN050 PROB30 1821/1903 -SHRA
      BKN025
     FM190300 31012KT P6SM VCSH SCT015 OVC025
      TEMPO 1903/1907 4SM -SHRA BR BKN015=

USA.gov is the U.S. government's official web portal to all federal, state and local government web resources and services.